Time;durP1;ratioP1;P1;durP2;ratioP2;P2;SDS_P1;SDS_P2;PMS_P1;PMS_P2;Temp;Humidity;BMP_temperature;BMP_pressure;BME280_temperature;BME280_humidity;BME280_pressure;Samples;Min_cycle;Max_cycle;Signal;HPM_P1;HPM_P2
2023/12/13 00:00:23;;;;;;;12.27;9.18;;;;;;;3.02;100.00;100101.63;5031502;28;20341;-38
2023/12/13 00:02:48;;;;;;;13.77;9.57;;;;;;;3.02;100.00;100096.34;5033337;28;20179;-37
2023/12/13 00:05:14;;;;;;;11.30;9.38;;;;;;;3.09;100.00;100092.66;5031697;28;20203;-39
2023/12/13 00:07:39;;;;;;;13.50;10.70;;;;;;;3.10;100.00;100094.41;5031616;28;20188;-41
2023/12/13 00:10:05;;;;;;;13.13;10.32;;;;;;;3.06;100.00;100090.97;5032106;28;20168;-42
2023/12/13 00:12:31;;;;;;;12.77;10.30;;;;;;;3.11;100.00;100084.72;5031250;28;20713;-40
2023/12/13 00:14:56;;;;;;;14.27;10.95;;;;;;;3.13;100.00;100086.41;5030540;28;20310;-38
2023/12/13 00:17:22;;;;;;;13.15;10.73;;;;;;;3.11;100.00;100084.72;5031457;28;20550;-41
2023/12/13 00:19:47;;;;;;;11.40;9.77;;;;;;;3.11;100.00;100069.69;5031858;28;20340;-38
2023/12/13 00:22:13;;;;;;;13.85;10.68;;;;;;;3.12;100.00;100081.13;5031545;28;20671;-42
2023/12/13 00:24:38;;;;;;;12.73;10.35;;;;;;;3.11;100.00;100077.63;5031215;28;20199;-42
2023/12/13 00:27:04;;;;;;;12.48;10.35;;;;;;;3.10;100.00;100067.94;5013379;28;20269;-42
2023/12/13 00:29:29;;;;;;;17.27;11.57;;;;;;;3.12;100.00;100068.78;5031548;28;20199;-38
2023/12/13 00:31:55;;;;;;;13.40;11.18;;;;;;;3.17;100.00;100074.88;5013369;28;20323;-39
2023/12/13 00:34:20;;;;;;;12.73;11.38;;;;;;;3.16;100.00;100075.75;5030936;28;20666;-40
2023/12/13 00:36:46;;;;;;;14.85;10.60;;;;;;;3.17;100.00;100072.22;5030822;28;20191;-40
2023/12/13 00:39:11;;;;;;;13.77;11.05;;;;;;;3.18;100.00;100065.16;5030788;28;20540;-38
2023/12/13 00:41:37;;;;;;;14.13;11.32;;;;;;;3.16;100.00;100073.09;5030731;28;20667;-39
2023/12/13 00:44:05;;;;;;;15.48;11.65;;;;;;;3.17;100.00;100063.38;5029348;28;20234;-38
2023/12/13 00:46:31;;;;;;;15.82;11.73;;;;;;;3.16;100.00;100072.25;5032767;28;20176;-40
2023/12/13 00:48:56;;;;;;;14.68;11.07;;;;;;;3.17;100.00;100068.69;5034747;28;20184;-39
2023/12/13 00:51:22;;;;;;;11.50;10.07;;;;;;;3.23;100.00;100064.13;5023944;28;20204;-39
2023/12/13 00:53:49;;;;;;;15.57;10.63;;;;;;;3.17;100.00;100064.28;5034684;28;20184;-37
2023/12/13 00:56:15;;;;;;;15.82;10.80;;;;;;;3.21;100.00;100054.47;5034353;28;20230;-41
2023/12/13 00:58:42;;;;;;;12.85;10.50;;;;;;;3.20;100.00;100055.41;5034438;28;20206;-37
2023/12/13 01:01:08;;;;;;;13.88;11.02;;;;;;;3.21;100.00;100058.00;5034462;28;20294;-40
2023/12/13 01:03:34;;;;;;;13.75;10.20;;;;;;;3.25;100.00;100058.81;5034314;28;20234;-39
2023/12/13 01:05:59;;;;;;;17.92;11.00;;;;;;;3.24;100.00;100057.94;5034415;28;20204;-41
2023/12/13 01:08:25;;;;;;;12.10;9.93;;;;;;;3.25;100.00;100054.38;5034379;28;20187;-41
2023/12/13 01:10:50;;;;;;;15.02;11.02;;;;;;;3.25;100.00;100061.47;5034607;28;20200;-39
2023/12/13 01:13:16;;;;;;;12.90;11.00;;;;;;;3.25;100.00;100046.44;5034362;28;20184;-39
2023/12/13 01:15:41;;;;;;;14.43;11.48;;;;;;;3.26;100.00;100055.28;5034401;28;20172;-42
2023/12/13 01:18:07;;;;;;;15.45;11.57;;;;;;;3.28;100.00;100054.34;5034213;28;20222;-40
2023/12/13 01:20:32;;;;;;;16.00;11.82;;;;;;;3.29;100.00;100047.25;5034424;28;20274;-39
2023/12/13 01:22:58;;;;;;;18.00;13.73;;;;;;;3.35;100.00;100059.50;5034081;28;20183;-42
2023/12/13 01:25:23;;;;;;;21.67;15.30;;;;;;;3.33;100.00;100048.06;5033850;28;20628;-42
2023/12/13 01:27:49;;;;;;;20.92;15.30;;;;;;;3.33;100.00;100048.94;5034178;28;20176;-43
2023/12/13 01:30:14;;;;;;;20.08;15.70;;;;;;;3.37;100.00;100045.34;5033943;28;20247;-38
2023/12/13 01:32:40;;;;;;;24.27;16.50;;;;;;;3.34;100.00;100052.44;5033610;28;20330;-38
2023/12/13 01:35:06;;;;;;;26.42;17.13;;;;;;;3.30;100.00;100047.25;5033569;28;20186;-37
2023/12/13 01:37:31;;;;;;;26.60;18.90;;;;;;;3.30;100.00;100049.88;5015635;28;20266;-37
2023/12/13 01:39:57;;;;;;;31.67;19.20;;;;;;;3.29;100.00;100044.63;5016102;28;20622;-38
2023/12/13 01:42:23;;;;;;;33.22;19.83;;;;;;;3.26;100.00;100042.91;5015205;28;20215;-40
2023/12/13 01:44:49;;;;;;;33.10;20.02;;;;;;;3.30;100.00;100038.41;5033335;28;20208;-40
2023/12/13 01:47:16;;;;;;;36.30;21.00;;;;;;;3.28;100.00;100041.09;5033389;28;20210;-41
2023/12/13 01:49:43;;;;;;;39.75;20.67;;;;;;;3.31;100.00;100037.50;5033292;28;20188;-42
2023/12/13 01:52:09;;;;;;;43.80;22.55;;;;;;;3.30;100.00;100055.19;5033223;28;20204;-41
2023/12/13 01:54:37;;;;;;;39.63;21.67;;;;;;;3.25;100.00;100053.53;5033135;28;20268;-40
2023/12/13 01:57:03;;;;;;;42.38;22.15;;;;;;;3.27;100.00;100049.06;5032794;28;20180;-40
2023/12/13 01:59:29;;;;;;;41.03;22.23;;;;;;;3.25;100.00;100043.78;5032692;28;20175;-41
2023/12/13 02:01:56;;;;;;;41.33;22.63;;;;;;;3.26;100.00;100044.69;5043410;28;20275;-43
2023/12/13 02:04:25;;;;;;;39.03;21.65;;;;;;;3.23;100.00;100045.59;5032956;28;20215;-43
2023/12/13 02:06:52;;;;;;;36.28;22.00;;;;;;;3.24;100.00;100035.91;5032989;28;20178;-39
2023/12/13 02:09:17;;;;;;;35.58;21.13;;;;;;;3.25;100.00;100053.53;5015330;28;20156;-40
2023/12/13 02:11:43;;;;;;;34.42;19.90;;;;;;;3.23;100.00;100052.69;5032675;28;20278;-42
2023/12/13 02:14:09;;;;;;;39.30;21.33;;;;;;;3.21;100.00;100043.88;5032847;28;20207;-42
2023/12/13 02:16:35;;;;;;;32.25;19.40;;;;;;;3.21;100.00;100049.19;5032927;28;20267;-42
2023/12/13 02:19:00;;;;;;;34.47;20.00;;;;;;;3.21;100.00;100052.69;5032808;28;20168;-41
2023/12/13 02:21:26;;;;;;;35.85;20.05;;;;;;;3.20;100.00;100043.03;5032809;28;20200;-38
2023/12/13 02:23:55;;;;;;;33.38;18.25;;;;;;;3.20;100.00;100047.47;5031472;28;20196;-42
2023/12/13 02:26:21;;;;;;;31.40;18.67;;;;;;;3.20;100.00;100027.16;5032767;28;20431;-41
2023/12/13 02:28:48;;;;;;;29.38;17.83;;;;;;;3.23;100.00;100037.66;5032473;28;20215;-41
2023/12/13 02:31:16;;;;;;;30.38;18.35;;;;;;;3.22;100.00;100040.34;5032297;28;20701;-40
2023/12/13 02:33:41;;;;;;;31.27;19.02;;;;;;;3.21;100.00;100038.59;5032154;28;20172;-39
2023/12/13 02:36:08;;;;;;;30.52;18.00;;;;;;;3.20;100.00;100040.38;5032131;28;20263;-39
2023/12/13 02:38:33;;;;;;;30.10;17.50;;;;;;;3.21;100.00;100034.16;5032271;28;20530;-41
2023/12/13 02:40:59;;;;;;;31.50;19.50;;;;;;;3.22;100.00;100028.00;5032476;28;20206;-42
2023/12/13 02:43:27;;;;;;;34.53;19.40;;;;;;;3.27;100.00;100035.81;5032141;28;20606;-42
2023/12/13 02:45:53;;;;;;;35.78;19.00;;;;;;;3.26;100.00;100032.31;5031885;28;20207;-43
2023/12/13 02:48:18;;;;;;;36.10;18.48;;;;;;;3.20;100.00;100037.72;5032294;28;20164;-38
2023/12/13 02:50:45;;;;;;;34.17;19.35;;;;;;;3.20;100.00;100029.78;5032052;28;20208;-39
2023/12/13 02:53:11;;;;;;;32.90;17.80;;;;;;;3.23;100.00;100020.91;5032167;28;20182;-41
2023/12/13 02:55:37;;;;;;;34.35;18.95;;;;;;;3.22;100.00;100020.03;5030099;28;20263;-38
2023/12/13 02:58:04;;;;;;;37.00;19.88;;;;;;;3.20;100.00;100037.72;5031801;28;20715;-40
2023/12/13 03:00:29;;;;;;;32.13;18.23;;;;;;;3.20;100.00;100026.28;5021907;28;20196;-41
2023/12/13 03:02:57;;;;;;;28.83;19.20;;;;;;;3.20;100.00;100023.63;5032130;28;20266;-41
2023/12/13 03:05:23;;;;;;;33.60;19.88;;;;;;;3.15;100.00;100010.50;5031844;28;20642;-39
2023/12/13 03:07:49;;;;;;;32.42;18.60;;;;;;;3.18;100.00;100013.06;5031622;28;20230;-42
2023/12/13 03:10:14;;;;;;;37.30;19.17;;;;;;;3.15;100.00;100013.16;5031645;28;20211;-41
2023/12/13 03:12:40;;;;;;;36.10;18.92;;;;;;;3.15;100.00;100010.50;5031609;28;20200;-42
2023/12/13 03:15:06;;;;;;;28.17;18.58;;;;;;;3.15;100.00;99999.91;5031615;28;20172;-41
2023/12/13 03:17:31;;;;;;;29.42;18.05;;;;;;;3.14;100.00;100008.75;5031641;28;20172;-39
2023/12/13 03:19:57;;;;;;;31.20;18.42;;;;;;;3.16;100.00;100014.00;5031533;28;20184;-38
2023/12/13 03:22:22;;;;;;;31.20;18.63;;;;;;;3.13;100.00;100020.25;5031224;28;20695;-41
2023/12/13 03:24:48;;;;;;;29.83;17.67;;;;;;;3.15;100.00;100017.53;5031393;28;20721;-40
2023/12/13 03:27:13;;;;;;;29.10;16.70;;;;;;;3.13;100.00;100007.00;5031554;28;20176;-39
2023/12/13 03:29:39;;;;;;;24.90;16.05;;;;;;;3.14;100.00;100011.38;5031407;28;20172;-39
2023/12/13 03:32:04;;;;;;;26.73;15.48;;;;;;;3.11;100.00;100016.75;5031230;28;20200;-40
2023/12/13 03:34:30;;;;;;;25.15;15.05;;;;;;;3.16;100.00;100014.00;5031481;28;20252;-39
2023/12/13 03:36:55;;;;;;;22.67;13.98;;;;;;;3.13;100.00;100014.94;5031127;28;20191;-42
2023/12/13 03:39:21;;;;;;;20.48;13.20;;;;;;;3.14;100.00;100013.16;5030726;28;20196;-38
2023/12/13 03:41:46;;;;;;;22.45;13.52;;;;;;;3.16;100.00;100008.72;5031143;28;20203;-42
2023/12/13 03:44:12;;;;;;;21.35;12.70;;;;;;;3.12;100.00;100002.59;5031159;28;20557;-38
2023/12/13 03:46:37;;;;;;;17.23;11.68;;;;;;;3.12;100.00;100005.25;5031180;28;20176;-43
2023/12/13 03:49:03;;;;;;;19.17;12.15;;;;;;;3.12;100.00;100002.59;5031039;28;20199;-42
2023/12/13 03:51:29;;;;;;;14.52;10.70;;;;;;;3.19;100.00;100014.84;5030911;28;20204;-43
2023/12/13 03:53:54;;;;;;;15.00;10.65;;;;;;;3.12;100.00;99999.97;5030967;28;20156;-41
2023/12/13 03:56:20;;;;;;;13.70;9.95;;;;;;;3.11;100.00;99995.59;5030939;28;20190;-40
2023/12/13 03:58:45;;;;;;;13.48;10.25;;;;;;;3.15;100.00;100002.56;5030916;28;20295;-40
2023/12/13 04:01:11;;;;;;;14.05;9.88;;;;;;;3.18;100.00;100013.06;5001792;28;20227;-42
2023/12/13 04:03:36;;;;;;;13.32;10.02;;;;;;;3.15;100.00;100010.50;5030704;28;20611;-39
2023/12/13 04:06:03;;;;;;;18.33;12.68;;;;;;;3.14;100.00;100005.22;5030784;28;20188;-40
2023/12/13 04:08:28;;;;;;;13.98;9.60;;;;;;;3.12;100.00;100004.38;5030792;28;20210;-38
2023/12/13 04:10:54;;;;;;;13.77;10.43;;;;;;;3.12;100.00;100002.59;5030760;28;20200;-42
2023/12/13 04:13:19;;;;;;;14.05;10.07;;;;;;;3.13;100.00;99996.44;5030901;28;20180;-40
2023/12/13 04:15:45;;;;;;;14.38;10.00;;;;;;;3.14;100.00;100003.44;5030853;28;20176;-41
2023/12/13 04:18:11;;;;;;;13.65;9.38;;;;;;;3.13;100.00;100004.38;5030757;28;20165;-41
2023/12/13 04:20:36;;;;;;;12.50;8.95;;;;;;;3.10;100.00;100007.06;5031321;28;20575;-39
2023/12/13 04:23:03;;;;;;;11.95;8.60;;;;;;;3.15;100.00;100006.97;5034723;28;20219;-39
2023/12/13 04:25:28;;;;;;;12.57;9.85;;;;;;;3.09;100.00;100002.69;5032208;28;20299;-42
2023/12/13 04:27:54;;;;;;;13.63;10.35;;;;;;;3.14;100.00;99999.94;5035045;28;20289;-40
2023/12/13 04:30:19;;;;;;;12.00;8.85;;;;;;;3.09;100.00;100000.03;5034469;28;20563;-42
2023/12/13 04:32:45;;;;;;;10.35;9.13;;;;;;;3.10;100.00;99999.13;5034188;28;20237;-40
2023/12/13 04:35:10;;;;;;;14.10;9.63;;;;;;;3.14;100.00;100002.59;5034398;28;20278;-41
2023/12/13 04:37:36;;;;;;;14.32;9.73;;;;;;;3.11;100.00;100006.16;5034750;28;20187;-42
2023/12/13 04:40:03;;;;;;;13.43;9.65;;;;;;;3.13;100.00;100003.47;5034599;28;20176;-40
2023/12/13 04:42:28;;;;;;;12.43;8.80;;;;;;;3.12;100.00;100017.63;5034346;28;20301;-39
2023/12/13 04:44:54;;;;;;;13.68;9.90;;;;;;;3.12;100.00;100002.59;5016422;28;20233;-41
2023/12/13 04:47:19;;;;;;;14.50;10.27;;;;;;;3.09;100.00;100002.69;5034747;28;20711;-40
2023/12/13 04:49:45;;;;;;;13.60;10.43;;;;;;;3.09;100.00;100007.97;5034426;28;20249;-38
2023/12/13 04:52:11;;;;;;;14.85;9.98;;;;;;;3.13;100.00;100008.75;5034193;28;20228;-38
2023/12/13 04:54:37;;;;;;;13.32;9.27;;;;;;;3.12;100.00;100013.19;5034083;28;20219;-37
2023/12/13 04:57:03;;;;;;;15.00;9.30;;;;;;;3.13;100.00;100019.34;5034297;28;20188;-40
2023/12/13 04:59:29;;;;;;;12.30;8.98;;;;;;;3.09;100.00;100007.97;5034231;28;20169;-41
2023/12/13 05:01:54;;;;;;;12.68;9.05;;;;;;;3.09;100.00;100021.22;5034030;28;20196;-38
2023/12/13 05:04:20;;;;;;;9.60;8.60;;;;;;;3.10;100.00;100015.00;5042900;28;20183;-39
2023/12/13 05:09:19;;;;;;;14.73;9.65;;;;;;;3.10;100.00;100009.69;5002622;28;20220;-41
2023/12/13 05:11:44;;;;;;;12.93;8.63;;;;;;;3.12;100.00;100015.84;5004504;28;20670;-41
2023/12/13 05:14:10;;;;;;;11.52;8.40;;;;;;;3.14;100.00;100015.81;5007985;28;20184;-39
2023/12/13 05:16:35;;;;;;;10.40;8.00;;;;;;;3.07;100.00;100026.53;5004085;28;20230;-38
2023/12/13 05:19:01;;;;;;;11.10;8.48;;;;;;;3.08;100.00;100016.81;5003295;28;20197;-37
2023/12/13 05:21:28;;;;;;;11.02;8.45;;;;;;;3.13;100.00;100020.25;5006644;28;20224;-39
2023/12/13 05:23:53;;;;;;;10.77;8.43;;;;;;;3.11;100.00;100016.75;5002024;28;20204;-38
2023/12/13 05:26:19;;;;;;;11.20;8.25;;;;;;;3.08;100.00;100017.69;5010259;28;20663;-41
2023/12/13 05:28:45;;;;;;;10.38;7.80;;;;;;;3.09;100.00;100021.22;5006870;28;20212;-39
2023/12/13 05:31:21;;;;;;;9.15;7.82;;;;;;;3.09;100.00;100027.38;5002976;28;20209;-40
2023/12/13 05:33:47;;;;;;;11.25;8.50;;;;;;;3.07;100.00;100009.78;5002429;28;20216;-40
2023/12/13 05:36:12;;;;;;;12.13;8.02;;;;;;;3.11;100.00;100027.34;5010482;28;20212;-40
2023/12/13 05:38:38;;;;;;;13.35;8.70;;;;;;;3.11;100.00;100023.84;5010147;28;20180;-41
2023/12/13 05:41:04;;;;;;;10.82;7.78;;;;;;;3.12;100.00;100014.97;5004647;28;20259;-42
2023/12/13 05:43:30;;;;;;;11.98;8.27;;;;;;;3.09;100.00;100026.50;5001587;28;20234;-40
2023/12/13 05:45:56;;;;;;;9.88;8.27;;;;;;;3.07;100.00;100023.00;5013990;28;20686;-40
2023/12/13 05:48:21;;;;;;;10.60;8.60;;;;;;;3.07;100.00;100020.38;4999031;28;20272;-40
2023/12/13 05:50:47;;;;;;;13.35;9.25;;;;;;;3.06;100.00;100015.97;4998257;28;20208;-39
2023/12/13 05:53:12;;;;;;;10.93;8.65;;;;;;;3.10;100.00;100030.88;4998691;28;20225;-40
2023/12/13 05:55:37;;;;;;;11.68;9.05;;;;;;;3.06;100.00;100023.91;4997577;28;20200;-38
2023/12/13 05:58:03;;;;;;;12.02;8.80;;;;;;;3.07;100.00;100023.00;4998367;28;20189;-40
2023/12/13 06:00:30;;;;;;;11.30;8.27;;;;;;;3.05;100.00;100022.16;4997207;28;20766;-39
2023/12/13 06:02:56;;;;;;;11.55;8.95;;;;;;;3.03;100.00;100026.63;4999715;28;20208;-40
2023/12/13 06:05:21;;;;;;;12.13;8.70;;;;;;;3.02;100.00;100039.00;5000695;28;20628;-39
2023/12/13 06:07:47;;;;;;;10.55;7.95;;;;;;;3.05;100.00;100033.63;5012562;28;20192;-40
2023/12/13 06:10:12;;;;;;;12.20;8.25;;;;;;;3.02;100.00;100036.34;4999659;28;20189;-43
2023/12/13 06:12:38;;;;;;;11.10;8.32;;;;;;;3.07;100.00;100029.16;4998674;28;20212;-39
2023/12/13 06:15:04;;;;;;;9.40;8.00;;;;;;;3.02;100.00;100028.41;4997109;28;20217;-40
2023/12/13 06:17:29;;;;;;;10.43;7.88;;;;;;;3.06;100.00;100031.84;5004605;28;20180;-41
2023/12/13 06:19:55;;;;;;;10.50;8.32;;;;;;;3.02;100.00;100032.84;4999088;28;20659;-40
2023/12/13 06:22:21;;;;;;;10.32;8.10;;;;;;;3.10;100.00;100030.88;4999891;28;20255;-40
2023/12/13 06:24:46;;;;;;;9.70;7.15;;;;;;;3.04;100.00;100045.13;4999234;28;20212;-39
2023/12/13 06:27:11;;;;;;;13.20;8.57;;;;;;;3.03;100.00;100040.72;5000058;28;20620;-40
2023/12/13 06:29:37;;;;;;;9.38;7.53;;;;;;;3.06;100.00;100040.69;4998228;28;20721;-38
2023/12/13 06:32:03;;;;;;;8.25;7.45;;;;;;;3.04;100.00;100050.41;4997575;28;20213;-41
2023/12/13 06:34:28;;;;;;;9.05;7.78;;;;;;;3.03;100.00;100056.59;4998151;28;20204;-40
2023/12/13 06:36:54;;;;;;;9.85;6.80;;;;;;;3.07;100.00;100036.25;5000777;28;20560;-40
2023/12/13 06:39:19;;;;;;;7.65;6.25;;;;;;;3.03;100.00;100040.72;5000528;28;20192;-40
2023/12/13 06:41:45;;;;;;;6.80;5.60;;;;;;;3.07;100.00;100052.13;4997714;28;20287;-40
2023/12/13 06:44:10;;;;;;;6.18;5.47;;;;;;;3.05;100.00;100046.84;5000940;28;20238;-40
2023/12/13 06:46:36;;;;;;;10.32;5.70;;;;;;;3.06;100.00;100045.06;4998486;28;20200;-40
2023/12/13 06:49:01;;;;;;;7.50;5.22;;;;;;;3.07;100.00;100055.63;5000565;28;20239;-41
2023/12/13 06:51:27;;;;;;;6.30;5.70;;;;;;;3.05;100.00;100048.63;5003255;28;20243;-40
2023/12/13 06:53:52;;;;;;;7.20;5.82;;;;;;;3.06;100.00;100050.38;5000897;28;20201;-40
2023/12/13 06:56:18;;;;;;;6.43;5.72;;;;;;;3.05;100.00;100043.34;5004153;28;20184;-40
2023/12/13 06:58:43;;;;;;;7.60;6.00;;;;;;;3.05;100.00;100059.22;5003505;28;20200;-39
2023/12/13 07:01:10;;;;;;;8.55;5.70;;;;;;;3.06;100.00;100067.13;5002712;28;20218;-40
2023/12/13 07:03:35;;;;;;;9.98;6.32;;;;;;;3.05;100.00;100059.22;5001731;28;20188;-40
2023/12/13 07:06:04;;;;;;;8.60;5.22;;;;;;;3.13;100.00;100059.94;5002254;28;20227;-41
2023/12/13 07:08:29;;;;;;;8.20;5.80;;;;;;;3.11;100.00;100061.75;5004676;28;20197;-41
2023/12/13 07:10:55;;;;;;;8.50;5.38;;;;;;;3.08;100.00;100075.03;5000618;28;20683;-39
2023/12/13 07:13:20;;;;;;;7.80;4.95;;;;;;;3.07;100.00;100060.94;4999150;28;20189;-40
2023/12/13 07:15:46;;;;;;;6.70;4.65;;;;;;;3.10;100.00;100065.28;5003504;28;20185;-39
2023/12/13 07:18:12;;;;;;;5.60;4.38;;;;;;;3.10;100.00;100070.56;5003694;28;20259;-39
2023/12/13 07:20:37;;;;;;;5.70;4.78;;;;;;;3.08;100.00;100070.63;5001982;28;20614;-42
2023/12/13 07:23:02;;;;;;;8.20;5.25;;;;;;;3.11;100.00;100063.53;5002313;28;20297;-39
2023/12/13 07:25:28;;;;;;;7.22;4.85;;;;;;;3.08;100.00;100062.69;5004990;28;20208;-40
2023/12/13 07:27:53;;;;;;;6.47;5.10;;;;;;;3.09;100.00;100067.06;5003190;28;20547;-41
2023/12/13 07:30:19;;;;;;;6.78;5.43;;;;;;;3.08;100.00;100067.97;5000119;28;20189;-42
2023/12/13 07:32:44;;;;;;;9.05;5.75;;;;;;;3.11;100.00;100080.28;5001398;28;20195;-44
2023/12/13 07:35:10;;;;;;;6.55;5.60;;;;;;;3.14;100.00;100079.34;5003311;28;20197;-41
2023/12/13 07:37:36;;;;;;;9.98;5.68;;;;;;;3.13;100.00;100080.22;5006651;28;20196;-38
2023/12/13 07:40:03;;;;;;;8.65;6.28;;;;;;;3.06;100.00;100082.13;5001382;28;20184;-40
2023/12/13 07:42:31;;;;;;;8.73;6.22;;;;;;;3.13;100.00;100081.13;5003468;28;20270;-39
2023/12/13 07:44:57;;;;;;;8.93;5.80;;;;;;;3.12;100.00;100087.28;5005219;28;20212;-39
2023/12/13 07:47:23;;;;;;;7.47;5.78;;;;;;;3.07;100.00;100079.44;5002188;28;20623;-40
2023/12/13 07:49:49;;;;;;;7.22;5.45;;;;;;;3.05;100.00;100085.69;5004376;28;20228;-39
2023/12/13 07:52:14;;;;;;;6.78;5.53;;;;;;;3.06;100.00;100092.69;5001590;28;20215;-38
2023/12/13 07:54:40;;;;;;;7.40;5.75;;;;;;;3.09;100.00;100079.44;5005944;28;20211;-37
2023/12/13 07:57:06;;;;;;;8.02;5.50;;;;;;;3.10;100.00;100094.41;5003959;28;20193;-40
2023/12/13 07:59:31;;;;;;;7.82;5.13;;;;;;;3.06;100.00;100084.75;5004021;28;20215;-39
2023/12/13 08:01:57;;;;;;;10.00;5.32;;;;;;;3.04;100.00;100099.81;4996834;28;20209;-39
2023/12/13 08:04:22;;;;;;;6.85;5.28;;;;;;;3.08;100.00;100088.25;5003046;28;20189;-39
2023/12/13 08:06:47;;;;;;;7.20;4.70;;;;;;;3.06;100.00;100100.66;5003011;28;20565;-42
2023/12/13 08:09:13;;;;;;;7.90;5.53;;;;;;;3.07;100.00;100086.53;5002662;28;20204;-39
2023/12/13 08:11:39;;;;;;;4.95;4.28;;;;;;;3.12;100.00;100087.28;5000271;28;20259;-39
2023/12/13 08:14:04;;;;;;;10.52;4.43;;;;;;;3.08;100.00;100086.50;5001202;28;20194;-41
2023/12/13 08:16:30;;;;;;;8.32;4.90;;;;;;;3.09;100.00;100082.06;5002151;28;20646;-40
2023/12/13 08:18:55;;;;;;;6.90;4.97;;;;;;;3.11;100.00;100090.88;5002185;28;20189;-40
2023/12/13 08:21:23;;;;;;;8.05;4.45;;;;;;;3.11;100.00;100090.00;4999462;28;20206;-39
2023/12/13 08:23:49;;;;;;;6.93;4.40;;;;;;;3.13;100.00;100112.88;4999499;28;20189;-42
2023/12/13 08:26:14;;;;;;;5.38;4.57;;;;;;;3.14;100.00;100089.94;5003630;28;20219;-41
2023/12/13 08:28:40;;;;;;;6.60;4.80;;;;;;;3.11;100.00;100090.00;5000180;28;20272;-41
2023/12/13 08:31:07;;;;;;;5.72;4.18;;;;;;;3.21;100.00;100102.13;5001476;28;20524;-40
2023/12/13 08:33:32;;;;;;;6.57;4.28;;;;;;;3.16;100.00;100088.13;5001432;28;20326;-40
2023/12/13 08:35:59;;;;;;;6.72;4.50;;;;;;;3.20;100.00;100084.50;5004149;28;20276;-41
2023/12/13 08:38:24;;;;;;;7.97;4.13;;;;;;;3.16;100.00;100098.72;4998766;28;20199;-40
2023/12/13 08:40:50;;;;;;;5.38;4.22;;;;;;;3.17;100.00;100100.44;5001103;28;20220;-38
2023/12/13 08:43:15;;;;;;;9.85;4.80;;;;;;;3.17;100.00;100100.44;5000616;28;20185;-38
2023/12/13 08:45:41;;;;;;;7.97;5.18;;;;;;;3.19;100.00;100096.88;4999837;28;20488;-39
2023/12/13 08:48:07;;;;;;;12.48;5.72;;;;;;;3.18;100.00;100096.91;5000711;28;20186;-39
2023/12/13 08:50:33;;;;;;;8.20;5.35;;;;;;;3.23;100.00;100102.97;4999888;28;20261;-39
2023/12/13 08:52:59;;;;;;;9.18;5.30;;;;;;;3.21;100.00;100096.84;4995983;28;20197;-38
2023/12/13 08:55:24;;;;;;;8.70;5.75;;;;;;;3.18;100.00;100107.50;5003466;28;20232;-41
2023/12/13 08:57:50;;;;;;;7.57;5.00;;;;;;;3.22;100.00;100115.34;4998032;28;20630;-39
2023/12/13 09:00:16;;;;;;;9.52;5.20;;;;;;;3.18;100.00;100124.25;5003643;28;20194;-40
2023/12/13 09:02:41;;;;;;;8.15;4.88;;;;;;;3.18;100.00;100113.66;5002073;28;20197;-39
2023/12/13 09:05:07;;;;;;;7.15;5.35;;;;;;;3.22;100.00;100125.06;4999830;28;20223;-41
2023/12/13 09:07:32;;;;;;;7.05;4.35;;;;;;;3.23;100.00;100132.09;5004206;28;20602;-41
2023/12/13 09:09:58;;;;;;;5.40;4.30;;;;;;;3.24;100.00;100133.84;5003388;28;20550;-42
2023/12/13 09:12:23;;;;;;;11.00;6.43;;;;;;;3.22;100.00;100136.53;5001246;28;20212;-42
2023/12/13 09:14:49;;;;;;;11.77;5.43;;;;;;;3.22;100.00;100122.41;5004465;28;20212;-40
2023/12/13 09:17:14;;;;;;;9.75;4.72;;;;;;;3.29;100.00;100121.38;5004246;28;20189;-40
2023/12/13 09:19:40;;;;;;;8.90;5.63;;;;;;;3.26;100.00;100132.91;5004828;28;20180;-40
2023/12/13 09:22:05;;;;;;;9.68;4.93;;;;;;;3.21;100.00;100131.25;5004690;28;20205;-43
2023/12/13 09:24:31;;;;;;;10.13;5.00;;;;;;;3.27;100.00;100136.44;5007452;28;20643;-41
2023/12/13 09:26:56;;;;;;;9.02;5.18;;;;;;;3.22;100.00;100146.25;5005160;28;20258;-39
2023/12/13 09:29:22;;;;;;;7.40;4.38;;;;;;;3.22;100.00;100131.22;5005665;28;20654;-41
2023/12/13 09:31:47;;;;;;;8.98;4.35;;;;;;;3.20;100.00;100138.31;5003052;28;20208;-40
2023/12/13 09:34:13;;;;;;;4.60;3.47;;;;;;;3.18;100.00;100134.81;5006729;28;20216;-40
2023/12/13 09:36:40;;;;;;;5.72;4.15;;;;;;;3.18;100.00;100134.81;5004375;28;20181;-39
2023/12/13 09:39:05;;;;;;;7.47;3.83;;;;;;;3.18;100.00;100132.19;5003305;28;20192;-40
2023/12/13 09:41:39;;;;;;;9.02;3.95;;;;;;;3.20;100.00;100146.25;5006411;28;20204;-42
2023/12/13 09:44:04;;;;;;;4.30;3.50;;;;;;;3.19;100.00;100141.88;5004501;28;20180;-39
2023/12/13 09:46:30;;;;;;;4.85;3.17;;;;;;;3.17;100.00;100135.75;5003748;28;20231;-39
2023/12/13 09:48:56;;;;;;;5.50;3.38;;;;;;;3.15;100.00;100140.19;5002892;28;20552;-40
2023/12/13 09:51:22;;;;;;;4.43;2.97;;;;;;;3.19;100.00;100147.19;5004534;28;20636;-41
2023/12/13 09:53:51;;;;;;;7.45;3.78;;;;;;;3.20;100.00;100148.91;5013056;28;20597;-39
2023/12/13 09:56:16;;;;;;;8.00;4.07;;;;;;;3.17;100.00;100148.09;5002452;28;20607;-43
2023/12/13 09:58:42;;;;;;;7.88;4.15;;;;;;;3.15;100.00;100149.88;5007218;28;20209;-42
2023/12/13 10:01:14;;;;;;;10.15;4.30;;;;;;;3.12;100.00;100153.47;5000771;28;20209;-43
2023/12/13 10:03:40;;;;;;;8.73;4.60;;;;;;;3.13;100.00;100136.69;4998634;28;20192;-43
2023/12/13 10:06:09;;;;;;;7.25;4.40;;;;;;;3.16;100.00;100143.72;5009028;28;20206;-41
2023/12/13 10:08:35;;;;;;;6.82;4.45;;;;;;;3.14;100.00;100146.38;5003594;28;20675;-41
2023/12/13 10:11:05;;;;;;;7.60;4.40;;;;;;;3.16;100.00;100149.00;5006847;28;20367;-42
2023/12/13 10:13:32;;;;;;;9.52;4.55;;;;;;;3.13;100.00;100135.81;5005312;28;20183;-40
2023/12/13 10:16:11;;;;;;;10.35;4.57;;;;;;;3.19;100.00;100149.81;5006963;28;20558;-40
2023/12/13 10:18:37;;;;;;;10.30;4.95;;;;;;;3.15;100.00;100139.28;5000121;28;20235;-39
2023/12/13 10:21:03;;;;;;;10.18;4.78;;;;;;;3.13;100.00;100142.00;5000060;28;20478;-43
2023/12/13 10:23:29;;;;;;;11.77;4.35;;;;;;;3.14;100.00;100156.09;5003435;28;20266;-40
2023/12/13 10:25:55;;;;;;;7.47;4.38;;;;;;;3.08;100.00;100143.84;5009448;28;20242;-42
2023/12/13 10:28:22;;;;;;;9.90;4.97;;;;;;;3.11;100.00;100153.50;5007039;28;20216;-41
2023/12/13 10:30:51;;;;;;;11.68;4.78;;;;;;;3.14;100.00;100150.81;5000246;28;20193;-42
2023/12/13 10:33:17;;;;;;;7.45;4.13;;;;;;;3.10;100.00;100163.19;5000463;28;20205;-39
2023/12/13 10:35:42;;;;;;;10.57;4.72;;;;;;;3.12;100.00;100150.81;5012746;28;20938;-42
2023/12/13 10:38:15;;;;;;;6.07;4.22;;;;;;;3.14;100.00;100153.44;5002624;28;20172;-40
2023/12/13 10:40:42;;;;;;;8.43;3.75;;;;;;;3.06;100.00;100156.22;5001539;28;20204;-39
2023/12/13 10:43:10;;;;;;;5.00;3.97;;;;;;;3.07;100.00;100144.75;5002347;28;20717;-39
2023/12/13 10:45:58;;;;;;;6.93;3.65;;;;;;;3.07;100.00;100157.97;5002294;28;20576;-41
2023/12/13 10:48:30;;;;;;;6.03;3.60;;;;;;;3.04;100.00;100158.91;5005789;28;20181;-42
2023/12/13 10:50:57;;;;;;;6.68;3.92;;;;;;;3.03;100.00;100149.22;5004519;28;20196;-40
2023/12/13 10:53:24;;;;;;;11.63;4.55;;;;;;;3.04;100.00;100145.69;5009043;28;20188;-41
2023/12/13 10:55:52;;;;;;;7.50;4.05;;;;;;;3.08;100.00;100143.84;5006271;28;20296;-42
2023/12/13 10:58:19;;;;;;;6.47;4.25;;;;;;;3.01;100.00;100150.16;5000822;28;20181;-39
2023/12/13 11:00:46;;;;;;;8.80;3.45;;;;;;;3.00;100.00;100169.59;5005389;28;20239;-41
2023/12/13 11:03:49;;;;;;;8.80;3.70;;;;;;;3.07;100.00;100147.41;5001897;28;20168;-39
2023/12/13 11:06:16;;;;;;;8.52;3.95;;;;;;;3.03;100.00;100151.84;5005770;28;20296;-40
2023/12/13 11:08:43;;;;;;;6.63;4.00;;;;;;;3.09;100.00;100157.03;5016575;22;20359;-39
2023/12/13 11:11:10;;;;;;;4.78;3.65;;;;;;;3.14;100.00;100158.75;5004699;28;20220;-38
2023/12/13 11:13:45;;;;;;;7.78;3.95;;;;;;;3.05;100.00;100159.78;5002612;28;20301;-40